Long Lake, NY

2:00 AM EST on February 08, 2016 (GMT -0500)
Adirondack Acres | | Change Station
CLOSE
Current Station
Personal Weather Station
Location: Long Lake, NY
Elevation: 1650 ft
Nearby Weather Stations

Elev 1650 ft 43.98 °N, 74.43 °W | Updated 2 seconds ago

Mostly Cloudy
Mostly Cloudy
27.0 °F
Feels Like 27 °F
N
0.0
Wind Variable Wind from SW
Gusts 0.0 mph

Today
High -- | Low -- °F
--% Chance of Precip.
Yesterday
High -- | Low -- °F
Precip. -- in
Pressure 29.95 in
Visibility 10.0 miles
Clouds Clear
Windchill 27 °F
Dew Point 12 °F
Humidity 53%
Rainfall 0.00 in
Snow Depth Not available.
7:07 AM 5:17 PM
Waning Crescent, 0% visible
METAR KSLK 080651Z AUTO 00000KT 10SM CLR M10/M11 A2988 RMK AO2 SLP141 T11001111 $
Pressure 29.95 in
Visibility 10.0 miles
Clouds Clear
Windchill 27 °F
Dew Point 12 °F
Humidity 53%
Rainfall 0.00 in
Snow Depth Not available.
7:07 AM 5:17 PM
Waning Crescent, 0% visible
METAR KSLK 080651Z AUTO 00000KT 10SM CLR M10/M11 A2988 RMK AO2 SLP141 T11001111 $

10-Day Weather Forecast

Almanac

Astronomy

Feb. 08, 2016 Rise Set
Actual Time
Civil Twilight
Nautical Twilight
Astronomical Twilight
Moon
Length of Visible Light
Length of Day
Tomorrow will be .
, % of the Moon is Illuminated

Today's Extremes

State Highs State Lows

Community

WunderPhotos

Upload Photos

1,891,395 photos uploaded!

WunderBlog® & News

Nearby

Air Quality

  Air Quality AQ Index Pollutant
Not available.

Snow Depth

Station Depth Elevation

Earthquake Activity

City Distance Mag. Time & Date
Minimum magnitude displayed is 2.5.

Coastal Water Temperatures

Place Temperature

Stations

Nearby Weather Stations

Station Location Temp. Windchill Dew Point Humidity Wind Precip. Elev Updated Type
                   

Watches & Warnings

There are currently no watches in effect.